ニース/コート・ダジュール の空港の天気 - METARとTAF

コート・ダジュール空港(ニース) ( LFMN / NCE ) - フランス ニース
飛行場実況気象(Metar)
観測時間01/22 10:30 CET (01/22 09:30 UTC)
風向・風速東北東 9m/s
視程10km以上
天気現象
少しの雲 雲底高度 1220m
全天の8割程度の雲 雲底高度 1520m
気温13℃
湿度51%
気圧1021hPa
METARLFMN 220930Z 07018KT 9999 FEW040 BKN050 13/03 Q1021 NOSIG
過去の天気等 Google飛行場航空写真 Wunderground天気予報

過去48時間のMETAR

飛行場予報(TAF)
発表時間: 1/22 09:00 CET (1/22 08:00 UTC)
予報対象時間: 22日10時 CET ~ 23日16時 CET
風向・風速東北東 8m/s
視程10km以上
全天の8割程度の雲 雲底高度 1,220m
22日10時 CET ~ 22日21時 CET に一時的に
風向・風速北北東 10m/s 瞬間風速 15m/s
視程3,000m
天気現象しゅう雨
少しの塔状積雲 雲底高度 910m
23日1時 CET ~ 23日10時 CET に 確率 40% で一時的に
風向・風速北北西 5m/s
TAF LFMN 220800Z 2209/2315 07016KT 9999 BKN040
TEMPO 2209/2220 03020G30KT 3000 SHRA FEW030TCU
PROB40 TEMPO 2300/2309 34010KT